Terminal Aerodrome Forecast
Issued by NWS

Home | Current Version | Previous Version | Text Only | Print | Product List | Glossary On
Versions: 1 2 3 4 5 6 7 8 9 10 11 12 13 14 15 16 17 18 19 20 21 22 23 24
000
FTUS41 KBGM 172338
TAFRME
TAF
KRME 172338Z 1800/1824 VRB03KT P6SM SCT045 OVC150
     FM180600 12005KT 5SM -SHSN BR OVC012
      TEMPO 1808/1811 1SM -SHSN BR OVC006
     FM181300 14008KT P6SM -RASN OVC009
     FM181900 21005KT 3SM -RASN OVC015=

USA.gov is the U.S. government's official web portal to all federal, state and local government web resources and services.